Scott, Louisiana
Current Conditions -  °F | °C
As of 5:53 AM on Tuesday 27 Jan 2015 (Local Time) from KLFT Reporting Station
Clear Clear  
Wind Chill: 47°   Ceiling: Unl
Heat Index: 47°   Visibility: 10mi
Dew Point: 44°   Wind: 3mph
Humidity: 90%   Direction: 250°WSW
Pressure: 30.08"   Gusts: NA
Location:  30.24°N, 92.09°W
Report Text: KLFT 271153Z 25003KT 10SM CLR 08/07 A3008 RMK AO2 SLP185 T00830067 10100 20078 55005
Loading
Personal Weather Stations






























Interactive Weather Map New forecast layout! Learn more

10-Day Weather Forecast

Advertisements
Track Severe Weather on mobile